createdAt,value
2023-04-08T00:00:47.196Z,8.70
2023-04-08T00:03:14.151Z,8.80
2023-04-08T00:05:41.125Z,8.80
2023-04-08T00:08:08.311Z,8.80
2023-04-08T00:10:35.111Z,8.80
2023-04-08T00:13:02.043Z,8.70
2023-04-08T00:15:28.798Z,8.70
2023-04-08T00:17:55.665Z,8.70
2023-04-08T00:20:23.691Z,8.70
2023-04-08T00:22:50.677Z,8.80
2023-04-08T00:25:17.490Z,8.70
2023-04-08T00:27:44.267Z,8.80
2023-04-08T00:30:11.699Z,8.70
2023-04-08T00:32:38.796Z,8.70
2023-04-08T00:35:05.887Z,8.70
2023-04-08T00:37:32.830Z,8.60
2023-04-08T00:39:59.581Z,8.60
2023-04-08T00:42:26.477Z,8.50
2023-04-08T00:44:53.307Z,8.50
2023-04-08T00:47:20.100Z,8.50
2023-04-08T00:49:47.036Z,8.60
2023-04-08T00:52:13.946Z,8.50
2023-04-08T00:54:41.787Z,8.50
2023-04-08T00:57:08.572Z,8.50
2023-04-08T00:59:36.253Z,8.50
2023-04-08T01:02:15.204Z,8.60
2023-04-08T01:05:04.466Z,8.60
2023-04-08T01:07:38.677Z,8.50
2023-04-08T01:10:20.372Z,8.50
2023-04-08T01:12:50.792Z,8.50
2023-04-08T01:15:17.508Z,8.50
2023-04-08T01:17:44.322Z,8.50
2023-04-08T01:20:11.287Z,8.50
2023-04-08T01:22:45.208Z,8.40
2023-04-08T01:25:17.646Z,8.40
2023-04-08T01:27:44.450Z,8.50
2023-04-08T01:30:11.535Z,8.50
2023-04-08T01:32:38.271Z,8.50
2023-04-08T01:35:05.379Z,8.50
2023-04-08T01:37:32.184Z,8.50
2023-04-08T01:39:58.952Z,8.50
2023-04-08T01:42:25.978Z,8.40
2023-04-08T01:44:52.984Z,8.30
2023-04-08T01:47:19.726Z,8.30
2023-04-08T01:49:46.531Z,8.30
2023-04-08T01:52:13.299Z,8.30
2023-04-08T01:54:40.083Z,8.30
2023-04-08T01:57:08.828Z,8.30
2023-04-08T01:59:36.815Z,8.30
2023-04-08T02:02:03.701Z,8.30
2023-04-08T02:04:30.760Z,8.30
2023-04-08T02:06:57.605Z,8.40
2023-04-08T02:09:25.434Z,8.40
2023-04-08T02:11:52.378Z,8.50
2023-04-08T02:14:23.027Z,8.40
2023-04-08T02:17:35.718Z,8.40
2023-04-08T02:20:31.750Z,8.40
2023-04-08T02:23:07.104Z,8.30
2023-04-08T02:25:36.036Z,8.20
2023-04-08T02:28:04.666Z,8.30
2023-04-08T02:30:31.877Z,8.10
2023-04-08T02:33:01.719Z,8.10
2023-04-08T02:35:28.553Z,8.10
2023-04-08T02:37:55.551Z,8.10
2023-04-08T02:40:28.663Z,8.10
2023-04-08T02:42:56.572Z,8.10
2023-04-08T02:45:25.658Z,8.10
2023-04-08T02:47:52.645Z,8.10
2023-04-08T02:50:19.412Z,8.10
2023-04-08T02:52:46.408Z,8.10
2023-04-08T02:55:13.237Z,8.10
2023-04-08T02:57:41.139Z,8.10
2023-04-08T03:00:09.079Z,8.10
2023-04-08T03:02:36.162Z,8.10
2023-04-08T03:05:04.332Z,8.10
2023-04-08T03:07:34.719Z,8.10
2023-04-08T03:10:02.261Z,8.10
2023-04-08T03:12:30.384Z,8.00
2023-04-08T03:14:57.624Z,8.00
2023-04-08T03:17:26.810Z,8.00
2023-04-08T03:19:54.740Z,8.00
2023-04-08T03:22:21.812Z,8.00
2023-04-08T03:24:48.538Z,8.00
2023-04-08T03:27:15.617Z,7.90
2023-04-08T03:29:42.669Z,7.90
2023-04-08T03:32:09.697Z,7.90
2023-04-08T03:34:36.540Z,7.90
2023-04-08T03:37:03.339Z,7.90
2023-04-08T03:39:30.339Z,7.90
2023-04-08T03:41:57.494Z,7.90
2023-04-08T03:44:24.656Z,7.90
2023-04-08T03:46:51.412Z,7.90
2023-04-08T03:49:24.364Z,7.90
2023-04-08T03:51:51.849Z,7.90
2023-04-08T03:54:18.914Z,7.90
2023-04-08T03:56:45.668Z,7.90
2023-04-08T03:59:12.501Z,7.80
2023-04-08T04:01:40.717Z,7.90
2023-04-08T04:04:09.018Z,7.90
2023-04-08T04:06:36.052Z,7.90
2023-04-08T04:09:03.481Z,7.90
2023-04-08T04:11:30.268Z,7.80
2023-04-08T04:13:57.033Z,7.80
2023-04-08T04:16:23.784Z,7.90
2023-04-08T04:18:50.802Z,7.80
2023-04-08T04:21:18.021Z,7.70
2023-04-08T04:23:44.808Z,7.70
2023-04-08T04:26:12.527Z,7.80
2023-04-08T04:28:39.341Z,7.80
2023-04-08T04:31:06.223Z,7.80
2023-04-08T04:33:32.951Z,7.80
2023-04-08T04:35:59.802Z,7.70
2023-04-08T04:38:27.226Z,7.70
2023-04-08T04:40:56.369Z,7.70
2023-04-08T04:43:23.096Z,7.80
2023-04-08T04:45:49.800Z,7.70
2023-04-08T04:48:16.636Z,7.70
2023-04-08T04:50:43.571Z,7.70
2023-04-08T04:53:10.352Z,7.70
2023-04-08T04:55:39.188Z,7.70
2023-04-08T04:58:06.070Z,7.70
2023-04-08T05:00:33.011Z,7.70
2023-04-08T05:02:59.915Z,7.70
2023-04-08T05:05:26.974Z,7.70
2023-04-08T05:07:53.950Z,7.70
2023-04-08T05:10:20.952Z,7.70
2023-04-08T05:12:47.704Z,7.70
2023-04-08T05:15:14.512Z,7.70
2023-04-08T05:17:41.349Z,7.70
2023-04-08T05:20:08.505Z,7.70
2023-04-08T05:22:35.464Z,7.70
2023-04-08T05:25:02.423Z,7.70
2023-04-08T05:27:29.290Z,7.70
2023-04-08T05:29:56.315Z,7.70
2023-04-08T05:32:23.361Z,7.70
2023-04-08T05:34:50.502Z,7.70
2023-04-08T05:37:17.317Z,7.70
2023-04-08T05:39:44.327Z,7.60
2023-04-08T05:42:12.914Z,7.50
2023-04-08T05:44:41.510Z,7.60
2023-04-08T05:47:08.350Z,7.60
2023-04-08T05:49:35.814Z,7.50
2023-04-08T05:52:03.814Z,7.50
2023-04-08T05:54:30.639Z,7.50
2023-04-08T05:56:57.612Z,7.50
2023-04-08T05:59:24.554Z,7.60
2023-04-08T06:01:51.550Z,7.60
2023-04-08T06:04:18.447Z,7.50
2023-04-08T06:06:45.847Z,7.50
2023-04-08T06:09:12.642Z,7.50
2023-04-08T06:11:39.381Z,7.60
2023-04-08T06:14:06.471Z,7.60
2023-04-08T06:16:33.635Z,7.70
2023-04-08T06:19:00.667Z,7.70
2023-04-08T06:21:27.802Z,7.70
2023-04-08T06:23:54.654Z,7.80
2023-04-08T06:26:22.028Z,7.80
2023-04-08T06:28:48.954Z,7.90
2023-04-08T06:31:16.118Z,7.90
2023-04-08T06:33:42.952Z,7.90
2023-04-08T06:36:09.971Z,7.90
2023-04-08T06:38:36.756Z,8.00
2023-04-08T06:41:07.207Z,8.00
2023-04-08T06:43:34.697Z,7.90
2023-04-08T06:46:01.835Z,8.10
2023-04-08T06:48:30.464Z,7.90
2023-04-08T06:50:57.865Z,7.90
2023-04-08T06:53:25.717Z,8.00
2023-04-08T06:55:52.526Z,8.00
2023-04-08T06:58:19.286Z,8.10
2023-04-08T07:00:46.043Z,8.10
2023-04-08T07:03:13.088Z,8.20
2023-04-08T07:05:42.170Z,8.20
2023-04-08T07:08:09.320Z,8.10
2023-04-08T07:10:36.313Z,8.10
2023-04-08T07:13:03.345Z,8.10
2023-04-08T07:15:30.086Z,8.00
2023-04-08T07:17:57.142Z,8.00
2023-04-08T07:20:24.097Z,8.10
2023-04-08T07:22:51.009Z,8.20
2023-04-08T07:25:18.279Z,8.20
2023-04-08T07:27:45.041Z,8.30
2023-04-08T07:30:12.778Z,8.30
2023-04-08T07:32:39.637Z,8.30
2023-04-08T07:35:06.623Z,8.40
2023-04-08T07:37:33.366Z,8.40
2023-04-08T07:40:00.323Z,8.40
2023-04-08T07:42:28.136Z,8.40
2023-04-08T07:44:54.913Z,8.40
2023-04-08T07:47:21.850Z,8.50
2023-04-08T07:49:48.640Z,8.40
2023-04-08T07:52:15.826Z,8.40
2023-04-08T07:54:42.675Z,8.40
2023-04-08T07:57:09.457Z,8.40
2023-04-08T07:59:37.018Z,8.50
2023-04-08T08:02:04.095Z,8.50
2023-04-08T08:04:31.780Z,8.40
2023-04-08T08:06:58.865Z,8.40
2023-04-08T08:09:25.697Z,8.40
2023-04-08T08:11:52.448Z,8.40
2023-04-08T08:14:19.209Z,8.30
2023-04-08T08:16:46.042Z,8.30
2023-04-08T08:19:13.991Z,8.30
2023-04-08T08:21:41.272Z,8.40
2023-04-08T08:24:08.124Z,8.40
2023-04-08T08:26:36.997Z,8.40
2023-04-08T08:29:04.342Z,8.50
2023-04-08T08:31:31.334Z,8.40
2023-04-08T08:33:58.117Z,8.40
2023-04-08T08:36:25.162Z,8.40
2023-04-08T08:38:53.549Z,8.50
2023-04-08T08:41:23.487Z,8.40
2023-04-08T08:43:50.635Z,8.40
2023-04-08T08:46:19.346Z,8.40
2023-04-08T08:48:46.503Z,8.40
2023-04-08T08:51:13.601Z,8.40
2023-04-08T08:53:45.260Z,8.40
2023-04-08T08:58:42.546Z,8.40
2023-04-08T09:01:34.492Z,8.40
2023-04-08T09:04:18.737Z,8.40
2023-04-08T09:06:51.107Z,8.40
2023-04-08T09:09:18.102Z,8.50
2023-04-08T09:11:46.301Z,8.50
2023-04-08T09:14:23.834Z,8.50
2023-04-08T09:16:51.577Z,8.50
2023-04-08T09:19:18.779Z,8.50
2023-04-08T09:21:45.968Z,8.60
2023-04-08T09:24:28.838Z,8.60
2023-04-08T09:26:56.819Z,8.60
2023-04-08T09:29:31.154Z,8.70
2023-04-08T09:32:01.139Z,8.80
2023-04-08T09:34:29.093Z,8.80
2023-04-08T09:36:56.339Z,8.80
2023-04-08T09:39:23.672Z,8.80
2023-04-08T09:41:51.183Z,8.80
2023-04-08T09:44:20.714Z,8.80
2023-04-08T09:46:50.773Z,8.80
2023-04-08T09:49:37.064Z,8.80
2023-04-08T09:52:18.875Z,8.80
2023-04-08T09:54:51.613Z,8.80
2023-04-08T09:57:22.941Z,8.80
2023-04-08T09:59:52.598Z,8.80
2023-04-08T10:02:22.921Z,8.80
2023-04-08T10:04:50.328Z,8.80
2023-04-08T10:07:17.119Z,8.80
2023-04-08T10:09:44.199Z,8.80
2023-04-08T10:12:10.972Z,8.80
2023-04-08T10:14:37.710Z,8.80
2023-04-08T10:17:32.156Z,8.80
2023-04-08T10:19:59.797Z,8.80
2023-04-08T10:22:29.460Z,8.70
2023-04-08T10:25:18.444Z,8.70
2023-04-08T10:27:45.467Z,8.70
2023-04-08T10:30:28.104Z,8.70
2023-04-08T10:33:00.181Z,8.70
2023-04-08T10:35:30.549Z,8.70
2023-04-08T10:38:00.998Z,8.70
2023-04-08T10:40:27.844Z,8.70
2023-04-08T10:42:58.250Z,8.80
2023-04-08T10:45:25.080Z,8.80
2023-04-08T10:47:52.371Z,8.80
2023-04-08T10:50:20.286Z,8.80
2023-04-08T10:52:51.021Z,8.80
2023-04-08T10:55:26.205Z,8.80
2023-04-08T10:57:53.461Z,8.70
2023-04-08T11:00:40.637Z,8.80
2023-04-08T11:03:08.637Z,8.70
2023-04-08T11:05:37.471Z,8.70
2023-04-08T11:08:04.822Z,8.70
2023-04-08T11:10:32.131Z,8.80
2023-04-08T11:12:58.981Z,8.70
2023-04-08T11:15:26.325Z,8.70
2023-04-08T11:17:54.197Z,8.70
2023-04-08T11:20:21.916Z,8.70
2023-04-08T11:22:48.873Z,8.80
2023-04-08T11:25:15.872Z,8.70
2023-04-08T11:27:42.837Z,8.70
2023-04-08T11:30:10.156Z,8.70
2023-04-08T11:32:37.164Z,8.70
2023-04-08T11:35:05.738Z,8.70
2023-04-08T11:37:39.877Z,8.70
2023-04-08T11:40:11.183Z,8.80
2023-04-08T11:42:38.541Z,8.80
2023-04-08T11:45:12.474Z,8.70
2023-04-08T11:47:39.364Z,8.60
2023-04-08T11:50:07.034Z,8.50
2023-04-08T11:52:43.076Z,8.40
2023-04-08T11:55:21.441Z,8.40
2023-04-08T11:57:48.367Z,8.40
2023-04-08T12:00:15.654Z,8.50
2023-04-08T12:02:42.422Z,8.30
2023-04-08T12:05:09.495Z,8.30
2023-04-08T12:07:36.271Z,8.20
2023-04-08T12:10:03.195Z,8.20
2023-04-08T12:12:30.015Z,8.30
2023-04-08T12:14:56.807Z,8.40
2023-04-08T12:17:23.566Z,8.50
2023-04-08T12:19:50.459Z,8.50
2023-04-08T12:22:17.589Z,8.50
2023-04-08T12:24:44.413Z,8.50
2023-04-08T12:27:11.301Z,8.50
2023-04-08T12:29:38.165Z,8.50
2023-04-08T12:32:05.637Z,8.50
2023-04-08T12:34:32.872Z,8.50
2023-04-08T12:36:59.722Z,8.60
2023-04-08T12:39:26.478Z,8.60
2023-04-08T12:41:53.345Z,8.60
2023-04-08T12:44:20.139Z,8.60
2023-04-08T12:46:47.223Z,8.60
2023-04-08T12:49:14.032Z,8.70
2023-04-08T12:51:40.841Z,8.80
2023-04-08T12:54:08.051Z,8.80
2023-04-08T12:56:34.946Z,8.70
2023-04-08T12:59:01.730Z,8.70
2023-04-08T13:01:28.621Z,8.80
2023-04-08T13:03:55.846Z,8.70
2023-04-08T13:06:22.854Z,8.70
2023-04-08T13:08:50.158Z,8.80
2023-04-08T13:11:17.164Z,8.80
2023-04-08T13:13:46.376Z,8.80
2023-04-08T13:16:16.223Z,8.80
2023-04-08T13:18:43.238Z,8.80
2023-04-08T13:21:10.010Z,8.80
2023-04-08T13:23:37.010Z,8.80
2023-04-08T13:26:03.945Z,8.80
2023-04-08T13:28:30.922Z,8.90
2023-04-08T13:30:57.685Z,9.00
2023-04-08T13:33:24.444Z,9.00
2023-04-08T13:35:51.195Z,8.90
2023-04-08T13:38:18.266Z,8.70
2023-04-08T13:40:46.649Z,8.60
2023-04-08T13:43:14.769Z,8.50
2023-04-08T13:45:42.062Z,8.40
2023-04-08T13:48:08.979Z,8.30
2023-04-08T13:50:36.184Z,8.50
2023-04-08T13:53:02.996Z,8.60
2023-04-08T13:55:30.070Z,8.60
2023-04-08T13:57:56.844Z,8.60
2023-04-08T14:00:25.355Z,8.70
2023-04-08T14:02:52.475Z,8.70
2023-04-08T14:05:19.462Z,8.70
2023-04-08T14:07:46.261Z,8.70
2023-04-08T14:10:14.637Z,8.70
2023-04-08T14:12:41.410Z,8.70
2023-04-08T14:15:08.934Z,8.60
2023-04-08T14:17:36.238Z,8.60
2023-04-08T14:20:04.023Z,8.60
2023-04-08T14:22:30.887Z,8.60
2023-04-08T14:24:57.638Z,8.60
2023-04-08T14:27:24.392Z,8.70
2023-04-08T14:29:51.265Z,8.70
2023-04-08T14:32:18.049Z,8.70
2023-04-08T14:34:44.929Z,8.70
2023-04-08T14:37:12.309Z,8.70
2023-04-08T14:39:39.157Z,8.70
2023-04-08T14:42:06.053Z,8.60
2023-04-08T14:44:33.014Z,8.70
2023-04-08T14:46:59.916Z,8.70
2023-04-08T14:49:26.789Z,8.70
2023-04-08T14:51:53.647Z,8.70
2023-04-08T14:54:21.229Z,8.70
2023-04-08T14:56:47.969Z,8.70
2023-04-08T14:59:14.710Z,8.70
2023-04-08T15:01:41.923Z,8.80
2023-04-08T15:04:08.950Z,8.90
2023-04-08T15:06:35.814Z,8.80
2023-04-08T15:09:02.828Z,8.80
2023-04-08T15:11:29.551Z,8.80
2023-04-08T15:13:56.260Z,8.80
2023-04-08T15:16:23.361Z,8.80
2023-04-08T15:18:50.554Z,8.80
2023-04-08T15:21:17.554Z,8.70
2023-04-08T15:23:44.464Z,8.70
2023-04-08T15:26:11.408Z,8.80
2023-04-08T15:28:40.393Z,8.70
2023-04-08T15:31:07.278Z,8.70
2023-04-08T15:33:34.385Z,8.80
2023-04-08T15:36:04.399Z,8.80
2023-04-08T15:38:33.647Z,8.80
2023-04-08T15:41:00.570Z,8.80
2023-04-08T15:43:27.312Z,8.70
2023-04-08T15:45:54.121Z,8.80
2023-04-08T15:48:20.906Z,8.80
2023-04-08T15:50:47.731Z,8.60
2023-04-08T15:53:14.488Z,8.70
2023-04-08T15:55:41.558Z,8.60
2023-04-08T15:58:08.445Z,8.40
2023-04-08T16:00:35.818Z,8.20
2023-04-08T16:03:02.897Z,8.10
2023-04-08T16:05:31.187Z,8.20
2023-04-08T16:07:58.495Z,8.30
2023-04-08T16:10:25.366Z,8.30
2023-04-08T16:12:53.260Z,8.30
2023-04-08T16:15:20.131Z,8.30
2023-04-08T16:17:53.447Z,8.40
2023-04-08T16:20:20.876Z,8.40
2023-04-08T16:22:47.807Z,8.40
2023-04-08T16:25:15.040Z,8.30
2023-04-08T16:27:41.931Z,8.30
2023-04-08T16:30:09.265Z,8.20
2023-04-08T16:32:36.895Z,8.20
2023-04-08T16:35:03.879Z,8.20
2023-04-08T16:37:30.705Z,8.20
2023-04-08T16:39:57.609Z,8.20
2023-04-08T16:42:24.454Z,8.20
2023-04-08T16:44:56.300Z,8.20
2023-04-08T16:47:23.809Z,8.20
2023-04-08T16:49:51.962Z,8.20
2023-04-08T16:52:19.169Z,8.10
2023-04-08T16:54:46.295Z,8.10
2023-04-08T16:57:13.108Z,8.10
2023-04-08T16:59:39.945Z,8.10
2023-04-08T17:02:06.863Z,8.10
2023-04-08T17:04:33.679Z,8.00
2023-04-08T17:07:01.294Z,7.90
2023-04-08T17:09:28.590Z,7.80
2023-04-08T17:11:56.092Z,7.80
2023-04-08T17:14:22.924Z,7.90
2023-04-08T17:16:49.854Z,7.90
2023-04-08T17:19:17.837Z,7.90
2023-04-08T17:21:44.695Z,7.90
2023-04-08T17:24:11.776Z,7.90
2023-04-08T17:26:41.757Z,7.90
2023-04-08T17:29:08.550Z,7.90
2023-04-08T17:31:36.300Z,7.90
2023-04-08T17:34:03.526Z,7.90
2023-04-08T17:36:31.422Z,7.80
2023-04-08T17:38:58.251Z,7.80
2023-04-08T17:41:38.393Z,7.80
2023-04-08T17:44:06.844Z,7.80
2023-04-08T17:46:33.683Z,7.80
2023-04-08T17:49:00.480Z,7.80
2023-04-08T17:51:28.034Z,7.80
2023-04-08T17:53:54.873Z,7.80
2023-04-08T17:56:21.926Z,7.90
2023-04-08T17:58:48.813Z,7.60
2023-04-08T18:01:15.867Z,7.70
2023-04-08T18:03:42.877Z,7.60
2023-04-08T18:06:09.708Z,7.40
2023-04-08T18:08:36.481Z,7.20
2023-04-08T18:11:06.395Z,7.20
2023-04-08T18:13:33.313Z,7.30
2023-04-08T18:16:00.228Z,7.30
2023-04-08T18:18:26.971Z,7.30
2023-04-08T18:20:54.009Z,7.30
2023-04-08T18:23:21.316Z,7.30
2023-04-08T18:25:48.663Z,7.40
2023-04-08T18:28:15.658Z,7.40
2023-04-08T18:30:43.411Z,7.30
2023-04-08T18:33:10.395Z,7.30
2023-04-08T18:35:37.231Z,7.30
2023-04-08T18:38:04.015Z,7.20
2023-04-08T18:40:31.360Z,7.20
2023-04-08T18:43:02.048Z,7.20
2023-04-08T18:45:30.027Z,7.20
2023-04-08T18:47:56.943Z,7.20
2023-04-08T18:50:24.097Z,7.10
2023-04-08T18:52:50.882Z,7.10
2023-04-08T18:55:17.708Z,7.20
2023-04-08T18:57:44.851Z,7.20
2023-04-08T19:00:12.063Z,7.20
2023-04-08T19:02:38.944Z,7.20
2023-04-08T19:05:06.339Z,7.20
2023-04-08T19:07:34.190Z,7.20
2023-04-08T19:10:00.982Z,7.20
2023-04-08T19:12:27.768Z,7.20
2023-04-08T19:14:54.701Z,7.20
2023-04-08T19:17:21.475Z,7.10
2023-04-08T19:19:48.222Z,7.10
2023-04-08T19:22:15.045Z,7.00
2023-04-08T19:24:41.981Z,7.00
2023-04-08T19:27:08.908Z,6.90
2023-04-08T19:29:36.281Z,6.90
2023-04-08T19:32:04.248Z,6.90
2023-04-08T19:34:31.113Z,6.90
2023-04-08T19:36:57.932Z,6.80
2023-04-08T19:39:26.670Z,6.80
2023-04-08T19:41:54.832Z,6.80
2023-04-08T19:44:21.751Z,6.70
2023-04-08T19:46:48.617Z,6.70
2023-04-08T19:49:15.597Z,6.70
2023-04-08T19:51:42.373Z,6.60
2023-04-08T19:54:09.472Z,6.60
2023-04-08T19:56:37.103Z,6.70
2023-04-08T19:59:03.940Z,6.70
2023-04-08T20:01:30.906Z,6.70
2023-04-08T20:03:57.912Z,6.70
2023-04-08T20:06:24.797Z,6.80
2023-04-08T20:08:52.821Z,6.80
2023-04-08T20:11:20.041Z,6.80
2023-04-08T20:13:47.682Z,6.70
2023-04-08T20:16:14.565Z,6.80
2023-04-08T20:18:41.433Z,6.80
2023-04-08T20:21:10.142Z,6.80
2023-04-08T20:23:40.267Z,6.80
2023-04-08T20:26:07.306Z,6.80
2023-04-08T20:28:34.117Z,6.90
2023-04-08T20:31:01.791Z,6.80
2023-04-08T20:33:28.577Z,6.70
2023-04-08T20:35:57.271Z,6.70
2023-04-08T20:38:24.947Z,6.70
2023-04-08T20:40:51.856Z,6.70
2023-04-08T20:43:18.612Z,6.70
2023-04-08T20:45:45.743Z,6.70
2023-04-08T20:48:13.510Z,6.70
2023-04-08T20:50:40.719Z,6.70
2023-04-08T20:53:07.477Z,6.70
2023-04-08T20:55:34.223Z,6.70
2023-04-08T20:58:05.626Z,6.70
2023-04-08T21:00:32.540Z,6.70
2023-04-08T21:02:59.658Z,6.70
2023-04-08T21:05:26.634Z,6.70
2023-04-08T21:07:53.340Z,6.70
2023-04-08T21:10:20.276Z,6.70
2023-04-08T21:12:47.061Z,6.70
2023-04-08T21:15:13.807Z,6.70
2023-04-08T21:17:40.713Z,6.70
2023-04-08T21:20:08.164Z,6.60
2023-04-08T21:22:34.993Z,6.60
2023-04-08T21:25:01.716Z,6.70
2023-04-08T21:27:29.109Z,6.60
2023-04-08T21:29:55.928Z,6.60
2023-04-08T21:32:23.525Z,6.60
2023-04-08T21:34:53.966Z,6.60
2023-04-08T21:37:21.005Z,6.60
2023-04-08T21:39:47.748Z,6.60
2023-04-08T21:42:14.603Z,6.60
2023-04-08T21:44:41.475Z,6.60
2023-04-08T21:47:08.243Z,6.60
2023-04-08T21:49:35.170Z,6.60
2023-04-08T21:52:03.208Z,6.60
2023-04-08T21:54:30.019Z,6.60
2023-04-08T21:56:56.928Z,6.60
2023-04-08T21:59:23.859Z,6.60
2023-04-08T22:01:50.844Z,6.60
2023-04-08T22:04:19.730Z,6.60
2023-04-08T22:06:49.626Z,6.60
2023-04-08T22:09:17.046Z,6.60
2023-04-08T22:11:43.832Z,6.50
2023-04-08T22:14:10.927Z,6.50
2023-04-08T22:16:38.306Z,6.60
2023-04-08T22:19:05.576Z,6.50
2023-04-08T22:21:32.397Z,6.50
2023-04-08T22:23:59.381Z,6.50
2023-04-08T22:26:27.621Z,6.50
2023-04-08T22:28:54.837Z,6.50
2023-04-08T22:31:22.172Z,6.60
2023-04-08T22:33:48.938Z,6.60
2023-04-08T22:36:16.072Z,6.60
2023-04-08T22:38:42.879Z,6.60
2023-04-08T22:41:22.411Z,6.60
2023-04-08T22:43:49.700Z,6.60
2023-04-08T22:46:18.244Z,6.50
2023-04-08T22:48:45.482Z,6.50
2023-04-08T22:51:12.693Z,6.50
2023-04-08T22:53:39.492Z,6.40
2023-04-08T22:56:06.326Z,6.50
2023-04-08T22:58:33.062Z,6.50
2023-04-08T23:00:59.839Z,6.50
2023-04-08T23:03:26.704Z,6.50
2023-04-08T23:05:53.742Z,6.50
2023-04-08T23:08:20.484Z,6.40
2023-04-08T23:10:47.604Z,6.40
2023-04-08T23:13:14.429Z,6.40
2023-04-08T23:15:41.687Z,6.40
2023-04-08T23:18:08.495Z,6.50
2023-04-08T23:20:35.865Z,6.40
2023-04-08T23:23:03.568Z,6.50
2023-04-08T23:25:30.857Z,6.50
2023-04-08T23:27:57.700Z,6.40
2023-04-08T23:30:24.654Z,6.40
2023-04-08T23:32:51.432Z,6.40
2023-04-08T23:35:18.568Z,6.40
2023-04-08T23:37:45.506Z,6.40
2023-04-08T23:40:12.698Z,6.40
2023-04-08T23:42:39.527Z,6.40
2023-04-08T23:45:06.814Z,6.40
2023-04-08T23:47:33.675Z,6.40
2023-04-08T23:50:00.864Z,6.40
2023-04-08T23:52:27.651Z,6.30
2023-04-08T23:54:54.429Z,6.30
2023-04-08T23:57:21.186Z,6.30
2023-04-08T23:59:47.975Z,6.30
